createdAt,value
2022-11-27T00:01:23.037Z,15.18
2022-11-27T00:03:52.167Z,8.27
2022-11-27T00:06:22.289Z,9.80
2022-11-27T00:08:51.062Z,5.80
2022-11-27T00:11:21.393Z,5.25
2022-11-27T00:13:50.988Z,10.18
2022-11-27T00:16:22.577Z,6.82
2022-11-27T00:18:51.229Z,10.77
2022-11-27T00:21:24.636Z,6.43
2022-11-27T00:23:54.234Z,10.50
2022-11-27T00:26:23.639Z,7.53
2022-11-27T00:28:52.570Z,8.02
2022-11-27T00:31:28.704Z,7.75
2022-11-27T00:33:57.586Z,6.18
2022-11-27T00:36:26.570Z,4.93
2022-11-27T00:38:55.113Z,4.80
2022-11-27T00:41:25.709Z,10.93
2022-11-27T00:43:55.014Z,5.60
2022-11-27T00:46:28.618Z,6.45
2022-11-27T00:48:58.306Z,5.97
2022-11-27T00:51:27.468Z,11.40
2022-11-27T00:53:56.431Z,9.77
2022-11-27T00:56:26.761Z,6.65
2022-11-27T00:58:55.848Z,8.95
2022-11-27T01:01:27.654Z,6.35
2022-11-27T01:03:57.328Z,10.20
2022-11-27T01:06:27.076Z,5.60
2022-11-27T01:08:55.853Z,7.07
2022-11-27T01:11:25.934Z,6.50
2022-11-27T01:13:54.834Z,6.05
2022-11-27T01:16:26.496Z,8.02
2022-11-27T01:18:57.627Z,11.63
2022-11-27T01:21:27.394Z,14.85
2022-11-27T01:23:56.412Z,12.20
2022-11-27T01:26:24.995Z,15.50
2022-11-27T01:28:53.521Z,14.85
2022-11-27T01:31:23.565Z,16.77
2022-11-27T01:33:55.940Z,13.32
2022-11-27T01:36:24.732Z,16.77
2022-11-27T01:38:53.265Z,15.00
2022-11-27T01:41:23.818Z,13.98
2022-11-27T01:43:53.811Z,11.00
2022-11-27T01:46:38.804Z,14.35
2022-11-27T01:49:23.806Z,10.07
2022-11-27T01:51:57.325Z,15.15
2022-11-27T01:54:30.500Z,11.88
2022-11-27T01:57:04.349Z,11.35
2022-11-27T01:59:32.647Z,7.38
2022-11-27T02:02:01.548Z,10.32
2022-11-27T02:04:31.477Z,11.45
2022-11-27T02:07:00.926Z,8.60
2022-11-27T02:09:31.713Z,7.57
2022-11-27T02:12:07.778Z,8.18
2022-11-27T02:14:44.670Z,12.35
2022-11-27T02:17:27.376Z,51.10
2022-11-27T02:20:14.141Z,35.42
2022-11-27T02:22:59.216Z,26.15
2022-11-27T02:25:35.848Z,19.73
2022-11-27T02:28:28.789Z,11.60
2022-11-27T02:31:04.941Z,20.35
2022-11-27T02:33:36.447Z,16.42
2022-11-27T02:36:11.392Z,20.48
2022-11-27T02:38:42.862Z,18.25
2022-11-27T02:41:17.245Z,15.40
2022-11-27T02:43:48.825Z,16.65
2022-11-27T02:46:20.144Z,11.80
2022-11-27T02:48:50.955Z,9.50
2022-11-27T02:51:33.669Z,12.80
2022-11-27T02:54:05.706Z,11.70
2022-11-27T02:56:35.790Z,12.10
2022-11-27T02:59:08.978Z,8.07
2022-11-27T03:01:44.082Z,10.80
2022-11-27T03:04:18.046Z,8.05
2022-11-27T03:06:49.768Z,5.43
2022-11-27T03:09:23.169Z,7.13
2022-11-27T03:11:51.538Z,8.88
2022-11-27T03:14:24.534Z,7.93
2022-11-27T03:17:03.683Z,6.00
2022-11-27T03:19:40.223Z,5.50
2022-11-27T03:22:08.776Z,6.35
2022-11-27T03:24:37.535Z,7.60
2022-11-27T03:27:08.285Z,4.95
2022-11-27T03:29:40.636Z,5.85
2022-11-27T03:32:10.975Z,5.80
2022-11-27T03:34:40.551Z,5.85
2022-11-27T03:37:09.085Z,8.07
2022-11-27T03:39:37.675Z,8.43
2022-11-27T03:42:19.571Z,4.80
2022-11-27T03:44:56.126Z,3.95
2022-11-27T03:47:39.440Z,4.28
2022-11-27T03:50:20.142Z,4.22
2022-11-27T03:52:56.300Z,4.77
2022-11-27T03:55:32.418Z,3.45
2022-11-27T03:58:03.130Z,5.10
2022-11-27T04:00:35.856Z,4.20
2022-11-27T04:03:06.477Z,5.05
2022-11-27T04:05:34.748Z,4.00
2022-11-27T04:08:02.922Z,6.55
2022-11-27T04:10:31.181Z,8.27
2022-11-27T04:12:59.377Z,6.10
2022-11-27T04:15:27.585Z,4.95
2022-11-27T04:17:55.733Z,5.13
2022-11-27T04:20:25.411Z,5.78
2022-11-27T04:22:54.416Z,6.07
2022-11-27T04:25:22.659Z,7.68
2022-11-27T04:27:51.011Z,9.13
2022-11-27T04:30:19.729Z,6.13
2022-11-27T04:32:47.922Z,4.03
2022-11-27T04:35:16.286Z,5.68
2022-11-27T04:37:45.968Z,7.22
2022-11-27T04:40:15.062Z,4.50
2022-11-27T04:42:43.289Z,7.03
2022-11-27T04:45:12.284Z,6.40
2022-11-27T04:47:40.459Z,4.87
2022-11-27T04:50:10.601Z,5.23
2022-11-27T04:52:38.955Z,3.80
2022-11-27T04:55:10.416Z,5.93
2022-11-27T04:57:38.568Z,4.60
2022-11-27T05:00:08.327Z,4.78
2022-11-27T05:02:36.596Z,3.67
2022-11-27T05:05:05.227Z,4.50
2022-11-27T05:07:33.670Z,4.03
2022-11-27T05:10:02.193Z,4.57
2022-11-27T05:12:31.775Z,5.15
2022-11-27T05:15:04.180Z,4.45
2022-11-27T05:17:32.971Z,5.05
2022-11-27T05:20:01.166Z,3.20
2022-11-27T05:22:29.453Z,4.25
2022-11-27T05:24:57.680Z,4.35
2022-11-27T05:27:25.884Z,5.80
2022-11-27T05:29:55.610Z,4.40
2022-11-27T05:32:23.838Z,8.50
2022-11-27T05:34:52.200Z,5.22
2022-11-27T05:37:20.547Z,5.60
2022-11-27T05:39:48.815Z,4.75
2022-11-27T05:42:16.985Z,4.07
2022-11-27T05:44:45.217Z,8.75
2022-11-27T05:47:14.794Z,4.65
2022-11-27T05:49:42.962Z,5.70
2022-11-27T05:52:11.270Z,4.90
2022-11-27T05:54:39.574Z,6.75
2022-11-27T05:57:08.018Z,5.70
2022-11-27T05:59:36.217Z,5.82
2022-11-27T06:02:05.249Z,5.60
2022-11-27T06:04:35.854Z,4.32
2022-11-27T06:07:04.147Z,5.30
2022-11-27T06:09:32.338Z,6.07
2022-11-27T06:12:00.629Z,8.35
2022-11-27T06:14:29.733Z,7.30
2022-11-27T06:16:58.050Z,7.23
2022-11-27T06:19:26.429Z,5.05
2022-11-27T06:21:56.007Z,7.20
2022-11-27T06:24:25.184Z,3.90
2022-11-27T06:26:53.397Z,5.30
2022-11-27T06:29:21.698Z,4.47
2022-11-27T06:31:49.936Z,5.32
2022-11-27T06:34:18.151Z,5.88
2022-11-27T06:36:46.492Z,6.93
2022-11-27T06:39:18.903Z,6.10
2022-11-27T06:41:47.225Z,6.47
2022-11-27T06:44:15.495Z,6.97
2022-11-27T06:46:43.691Z,8.48
2022-11-27T06:49:12.520Z,9.80
2022-11-27T06:51:40.768Z,11.37
2022-11-27T06:54:08.967Z,11.23
2022-11-27T06:56:38.515Z,14.57
2022-11-27T06:59:06.747Z,30.30
2022-11-27T07:01:35.452Z,31.40
2022-11-27T07:04:03.701Z,15.20
2022-11-27T07:06:31.930Z,13.60
2022-11-27T07:09:00.241Z,10.70
2022-11-27T07:11:31.937Z,13.60
2022-11-27T07:14:03.611Z,8.53
2022-11-27T07:16:34.390Z,18.65
2022-11-27T07:19:05.274Z,24.17
2022-11-27T07:21:34.210Z,34.15
2022-11-27T07:24:02.709Z,48.00
2022-11-27T07:26:32.008Z,27.30
2022-11-27T07:29:01.653Z,24.95
2022-11-27T07:31:31.270Z,21.40
2022-11-27T07:33:59.925Z,13.18
2022-11-27T07:36:30.419Z,13.13
2022-11-27T07:38:59.762Z,10.07
2022-11-27T07:41:33.556Z,13.82
2022-11-27T07:44:04.056Z,12.77
2022-11-27T07:46:32.519Z,13.68
2022-11-27T07:49:01.555Z,14.20
2022-11-27T07:51:30.155Z,15.68
2022-11-27T07:53:58.456Z,14.07
2022-11-27T07:56:27.455Z,20.77
2022-11-27T07:58:55.643Z,28.58
2022-11-27T08:01:25.627Z,136.27
2022-11-27T08:03:53.999Z,64.38
2022-11-27T08:06:23.912Z,33.70
2022-11-27T08:08:52.755Z,30.45
2022-11-27T08:11:23.528Z,17.33
2022-11-27T08:13:56.174Z,13.60
2022-11-27T08:16:25.884Z,14.20
2022-11-27T08:18:54.397Z,36.65
2022-11-27T08:21:22.649Z,21.48
2022-11-27T08:23:50.879Z,17.58
2022-11-27T08:26:19.534Z,27.30
2022-11-27T08:28:48.194Z,11.65
2022-11-27T08:31:16.825Z,23.63
2022-11-27T08:33:46.378Z,29.60
2022-11-27T08:36:18.071Z,21.33
2022-11-27T08:38:46.468Z,23.33
2022-11-27T08:41:15.090Z,22.35
2022-11-27T08:43:43.360Z,40.65
2022-11-27T08:46:12.147Z,25.30
2022-11-27T08:48:40.489Z,16.48
2022-11-27T08:51:12.749Z,16.65
2022-11-27T08:53:41.670Z,14.88
2022-11-27T08:56:12.652Z,17.97
2022-11-27T08:58:41.151Z,12.00
2022-11-27T09:01:11.358Z,12.32
2022-11-27T09:03:39.927Z,13.65
2022-11-27T09:06:11.749Z,13.80
2022-11-27T09:08:40.751Z,12.77
2022-11-27T09:11:10.580Z,16.33
2022-11-27T09:13:40.250Z,12.70
2022-11-27T09:16:10.768Z,20.38
2022-11-27T09:18:39.559Z,17.90
2022-11-27T09:21:10.917Z,18.30
2022-11-27T09:23:39.852Z,18.48
2022-11-27T09:26:10.474Z,18.30
2022-11-27T09:28:39.840Z,16.20
2022-11-27T09:31:10.009Z,21.05
2022-11-27T09:33:40.454Z,16.73
2022-11-27T09:36:12.057Z,9.70
2022-11-27T09:38:40.473Z,15.80
2022-11-27T09:41:25.893Z,13.70
2022-11-27T09:43:57.833Z,20.42
2022-11-27T09:46:30.407Z,21.10
2022-11-27T09:49:00.306Z,11.60
2022-11-27T09:51:35.862Z,12.40
2022-11-27T09:54:09.771Z,5.70
2022-11-27T09:56:38.065Z,7.22
2022-11-27T09:59:15.918Z,6.25
2022-11-27T10:01:49.395Z,3.90
2022-11-27T10:04:21.046Z,4.40
2022-11-27T10:07:06.379Z,3.63
2022-11-27T10:09:44.966Z,27.25
2022-11-27T10:12:24.036Z,46.97
2022-11-27T10:15:04.807Z,13.70
2022-11-27T10:17:38.761Z,4.43
2022-11-27T10:20:19.573Z,2.60
2022-11-27T10:22:57.493Z,5.25
2022-11-27T10:25:32.064Z,6.53
2022-11-27T10:28:17.395Z,6.20
2022-11-27T10:30:52.643Z,5.25
2022-11-27T10:33:27.032Z,4.57
2022-11-27T10:35:56.145Z,4.22
2022-11-27T10:38:28.088Z,4.18
2022-11-27T10:41:34.370Z,3.30
2022-11-27T10:44:13.767Z,6.78
2022-11-27T10:46:42.439Z,5.90
2022-11-27T10:49:11.307Z,3.85
2022-11-27T10:51:42.407Z,4.10
2022-11-27T10:54:23.126Z,6.10
2022-11-27T10:57:12.495Z,4.15
2022-11-27T10:59:47.845Z,5.03
2022-11-27T11:02:31.995Z,2.83
2022-11-27T11:05:37.307Z,4.97
2022-11-27T11:08:06.078Z,5.40
2022-11-27T11:10:38.671Z,5.88
2022-11-27T11:13:19.772Z,7.85
2022-11-27T11:15:53.627Z,2.88
2022-11-27T11:18:23.648Z,2.10
2022-11-27T11:20:54.723Z,2.45
2022-11-27T11:23:28.891Z,3.03
2022-11-27T11:26:02.710Z,3.17
2022-11-27T11:28:36.536Z,5.13
2022-11-27T11:31:10.848Z,3.50
2022-11-27T11:33:49.656Z,3.70
2022-11-27T11:36:17.965Z,3.80
2022-11-27T11:38:47.848Z,5.05
2022-11-27T11:41:19.061Z,5.53
2022-11-27T11:43:58.518Z,7.57
2022-11-27T11:46:29.997Z,5.05
2022-11-27T11:49:01.522Z,3.85
2022-11-27T11:51:57.100Z,2.45
2022-11-27T11:54:39.357Z,2.00
2022-11-27T11:57:25.555Z,3.50
2022-11-27T12:00:04.563Z,2.65
2022-11-27T12:02:51.378Z,2.20
2022-11-27T12:05:33.192Z,1.33
2022-11-27T12:08:22.519Z,1.88
2022-11-27T12:10:57.632Z,3.00
2022-11-27T12:13:38.800Z,9.27
2022-11-27T12:16:17.708Z,3.17
2022-11-27T12:19:01.418Z,3.95
2022-11-27T12:21:40.293Z,4.27
2022-11-27T12:24:20.776Z,5.50
2022-11-27T12:26:59.166Z,8.32
2022-11-27T12:30:01.056Z,7.80
2022-11-27T12:32:45.008Z,9.25
2022-11-27T12:35:35.064Z,7.65
2022-11-27T12:38:29.333Z,6.57
2022-11-27T12:41:21.517Z,31.30
2022-11-27T12:43:52.031Z,20.73
2022-11-27T12:46:27.848Z,32.30
2022-11-27T12:49:00.336Z,21.27
2022-11-27T12:51:33.082Z,12.27
2022-11-27T12:54:04.866Z,15.75
2022-11-27T12:56:39.129Z,21.90
2022-11-27T12:59:15.841Z,52.50
2022-11-27T13:01:48.749Z,45.92
2022-11-27T13:04:23.610Z,19.70
2022-11-27T13:07:02.585Z,19.63
2022-11-27T13:09:42.025Z,30.15
2022-11-27T13:12:14.985Z,18.40
2022-11-27T13:14:46.518Z,8.07
2022-11-27T13:17:20.136Z,15.05
2022-11-27T13:19:51.864Z,21.42
2022-11-27T13:22:27.527Z,26.70
2022-11-27T13:24:56.849Z,22.87
2022-11-27T13:27:28.159Z,14.20
2022-11-27T13:30:00.849Z,4.03
2022-11-27T13:32:34.567Z,10.68
2022-11-27T13:35:07.271Z,3.63
2022-11-27T13:37:38.148Z,3.53
2022-11-27T13:40:17.745Z,4.70
2022-11-27T13:42:49.146Z,3.00
2022-11-27T13:45:23.917Z,3.55
2022-11-27T13:47:54.226Z,3.60
2022-11-27T13:50:29.691Z,2.97
2022-11-27T13:53:04.281Z,2.60
2022-11-27T13:55:34.766Z,4.75
2022-11-27T13:58:04.502Z,2.63
2022-11-27T14:00:36.188Z,2.53
2022-11-27T14:03:09.807Z,2.67
2022-11-27T14:05:41.614Z,2.65
2022-11-27T14:08:21.815Z,5.22
2022-11-27T14:10:57.206Z,4.18
2022-11-27T14:13:38.219Z,2.08
2022-11-27T14:16:24.258Z,2.58
2022-11-27T14:18:55.331Z,3.53
2022-11-27T14:21:31.902Z,2.95
2022-11-27T14:24:05.841Z,2.78
2022-11-27T14:26:34.513Z,10.17
2022-11-27T14:29:02.708Z,9.55
2022-11-27T14:31:33.540Z,13.25
2022-11-27T14:34:24.270Z,40.27
2022-11-27T14:36:53.550Z,34.83
2022-11-27T14:39:26.565Z,34.20
2022-11-27T14:41:59.014Z,15.47
2022-11-27T14:44:27.598Z,10.60
2022-11-27T14:46:58.316Z,14.07
2022-11-27T14:49:29.604Z,11.80
2022-11-27T14:52:01.387Z,8.35
2022-11-27T14:54:32.557Z,8.15
2022-11-27T14:57:01.095Z,4.05
2022-11-27T14:59:29.671Z,3.10
2022-11-27T15:02:04.116Z,3.40
2022-11-27T15:04:37.359Z,3.20
2022-11-27T15:07:08.173Z,3.17
2022-11-27T15:09:37.499Z,4.20
2022-11-27T15:12:16.299Z,5.50
2022-11-27T15:14:48.223Z,6.15
2022-11-27T15:17:20.755Z,10.98
2022-11-27T15:19:50.620Z,41.05
2022-11-27T15:22:19.822Z,82.40
2022-11-27T15:24:48.116Z,27.87
2022-11-27T15:27:21.745Z,9.20
2022-11-27T15:30:12.150Z,4.22
2022-11-27T15:32:52.302Z,5.13
2022-11-27T15:35:28.190Z,3.23
2022-11-27T15:37:58.157Z,4.40
2022-11-27T15:40:31.774Z,3.85
2022-11-27T15:43:00.239Z,2.40
2022-11-27T15:45:31.605Z,5.50
2022-11-27T15:48:01.614Z,4.88
2022-11-27T15:50:31.676Z,3.42
2022-11-27T15:53:01.026Z,3.80
2022-11-27T15:55:29.320Z,7.13
2022-11-27T15:57:57.709Z,7.53
2022-11-27T16:00:27.100Z,8.95
2022-11-27T16:02:55.752Z,15.10
2022-11-27T16:05:23.923Z,15.00
2022-11-27T16:07:55.311Z,7.90
2022-11-27T16:10:24.024Z,8.38
2022-11-27T16:12:55.153Z,15.23
2022-11-27T16:15:25.778Z,21.42
2022-11-27T16:17:57.046Z,22.23
2022-11-27T16:20:25.669Z,18.50
2022-11-27T16:22:55.490Z,14.95
2022-11-27T16:25:25.175Z,12.85
2022-11-27T16:27:57.940Z,17.60
2022-11-27T16:30:27.739Z,13.17
2022-11-27T16:32:55.975Z,12.37
2022-11-27T16:35:26.112Z,13.23
2022-11-27T16:37:56.467Z,13.02
2022-11-27T16:40:24.898Z,7.50
2022-11-27T16:42:53.497Z,9.68
2022-11-27T16:45:21.858Z,13.82
2022-11-27T16:47:50.689Z,10.83
2022-11-27T16:50:19.378Z,9.07
2022-11-27T16:52:54.151Z,15.10
2022-11-27T16:55:26.201Z,28.83
2022-11-27T16:57:55.736Z,24.92
2022-11-27T17:00:24.367Z,18.90
2022-11-27T17:02:54.063Z,10.13
2022-11-27T17:05:22.545Z,7.47
2022-11-27T17:07:50.725Z,8.63
2022-11-27T17:10:19.165Z,24.38
2022-11-27T17:12:48.822Z,23.23
2022-11-27T17:15:17.234Z,21.30
2022-11-27T17:17:45.467Z,12.43
2022-11-27T17:20:14.467Z,10.48
2022-11-27T17:22:42.804Z,7.28
2022-11-27T17:25:11.496Z,10.40
2022-11-27T17:27:39.862Z,13.15
2022-11-27T17:30:11.517Z,10.60
2022-11-27T17:32:39.949Z,6.32
2022-11-27T17:35:08.944Z,9.15
2022-11-27T17:37:37.397Z,8.73
2022-11-27T17:40:06.978Z,5.00
2022-11-27T17:42:35.318Z,7.07
2022-11-27T17:45:03.554Z,15.20
2022-11-27T17:47:34.080Z,5.70
2022-11-27T17:50:02.780Z,6.20
2022-11-27T17:52:32.154Z,8.55
2022-11-27T17:55:00.381Z,11.63
2022-11-27T17:57:28.975Z,8.40
2022-11-27T17:59:57.797Z,8.25
2022-11-27T18:02:26.149Z,10.68
2022-11-27T18:04:55.779Z,12.90
2022-11-27T18:07:25.344Z,10.47
2022-11-27T18:09:54.354Z,7.85
2022-11-27T18:12:22.581Z,8.30
2022-11-27T18:14:56.497Z,8.05
2022-11-27T18:17:28.921Z,10.98
2022-11-27T18:19:59.121Z,7.25
2022-11-27T18:22:27.435Z,9.75
2022-11-27T18:24:55.619Z,8.80
2022-11-27T18:27:23.864Z,6.22
2022-11-27T18:29:52.169Z,9.10
2022-11-27T18:32:20.914Z,6.70
2022-11-27T18:34:49.459Z,8.90
2022-11-27T18:37:20.383Z,5.22
2022-11-27T18:39:48.767Z,8.38
2022-11-27T18:42:17.066Z,9.10
2022-11-27T18:44:46.476Z,5.30
2022-11-27T18:47:15.795Z,7.18
2022-11-27T18:49:46.165Z,5.72
2022-11-27T18:52:14.841Z,7.10
2022-11-27T18:54:44.670Z,4.90
2022-11-27T18:57:15.064Z,4.13
2022-11-27T18:59:44.930Z,5.18
2022-11-27T19:02:14.323Z,4.30
2022-11-27T19:04:44.851Z,7.78
2022-11-27T19:07:13.478Z,4.82
2022-11-27T19:09:41.876Z,4.78
2022-11-27T19:12:12.259Z,6.47
2022-11-27T19:14:40.738Z,6.03
2022-11-27T19:17:09.444Z,7.95
2022-11-27T19:19:54.539Z,5.78
2022-11-27T19:22:23.579Z,9.32
2022-11-27T19:24:51.932Z,7.20
2022-11-27T19:27:21.522Z,5.68
2022-11-27T19:29:50.034Z,4.30
2022-11-27T19:32:18.886Z,8.57
2022-11-27T19:34:47.214Z,9.97
2022-11-27T19:37:21.316Z,7.37
2022-11-27T19:39:57.171Z,9.60
2022-11-27T19:42:27.327Z,4.83
2022-11-27T19:44:56.123Z,7.18
2022-11-27T19:47:24.661Z,6.43
2022-11-27T19:49:53.046Z,6.10
2022-11-27T19:52:21.447Z,7.88
2022-11-27T19:54:49.841Z,6.38
2022-11-27T19:57:18.624Z,9.85
2022-11-27T19:59:48.681Z,6.05
2022-11-27T20:02:18.163Z,6.00
2022-11-27T20:04:46.522Z,7.57
2022-11-27T20:07:14.888Z,5.72
2022-11-27T20:09:43.231Z,5.80
2022-11-27T20:12:11.745Z,5.82
2022-11-27T20:14:40.317Z,5.10
2022-11-27T20:17:10.393Z,4.85
2022-11-27T20:19:39.456Z,5.03
2022-11-27T20:22:08.147Z,4.65
2022-11-27T20:24:47.981Z,5.03
2022-11-27T20:27:25.454Z,6.10
2022-11-27T20:29:55.215Z,4.53
2022-11-27T20:32:25.202Z,5.53
2022-11-27T20:34:54.648Z,10.60
2022-11-27T20:37:23.050Z,7.55
2022-11-27T20:39:51.803Z,5.90
2022-11-27T20:42:22.253Z,4.30
2022-11-27T20:44:51.402Z,4.93
2022-11-27T20:47:19.642Z,3.90
2022-11-27T20:49:49.234Z,4.10
2022-11-27T20:52:19.475Z,4.03
2022-11-27T20:54:47.778Z,6.82
2022-11-27T20:57:16.332Z,4.15
2022-11-27T20:59:44.641Z,10.25
2022-11-27T21:02:13.488Z,6.45
2022-11-27T21:04:41.783Z,5.75
2022-11-27T21:07:12.120Z,5.72
2022-11-27T21:09:40.641Z,5.38
2022-11-27T21:12:10.449Z,4.85
2022-11-27T21:14:38.676Z,5.70
2022-11-27T21:17:07.601Z,6.28
2022-11-27T21:19:35.818Z,8.30
2022-11-27T21:22:04.477Z,5.73
2022-11-27T21:24:34.078Z,5.70
2022-11-27T21:27:03.519Z,8.07
2022-11-27T21:29:31.783Z,5.82
2022-11-27T21:32:00.070Z,6.35
2022-11-27T21:34:28.610Z,7.53
2022-11-27T21:36:57.169Z,11.40
2022-11-27T21:39:25.780Z,11.85
2022-11-27T21:41:56.853Z,11.23
2022-11-27T21:44:26.946Z,8.90
2022-11-27T21:46:55.191Z,7.65
2022-11-27T21:49:24.419Z,8.13
2022-11-27T21:51:54.086Z,8.80
2022-11-27T21:54:29.639Z,9.13
2022-11-27T21:56:59.462Z,7.30
2022-11-27T21:59:27.776Z,4.22
2022-11-27T22:01:57.297Z,4.43
2022-11-27T22:04:26.396Z,9.68
2022-11-27T22:06:55.061Z,6.20
2022-11-27T22:09:23.228Z,6.13
2022-11-27T22:11:53.801Z,5.63
2022-11-27T22:14:23.503Z,5.90
2022-11-27T22:16:51.835Z,4.90
2022-11-27T22:19:20.199Z,6.40
2022-11-27T22:21:50.672Z,4.90
2022-11-27T22:24:19.952Z,7.70
2022-11-27T22:26:52.499Z,8.88
2022-11-27T22:29:20.783Z,12.43
2022-11-27T22:31:50.413Z,8.70
2022-11-27T22:34:18.731Z,8.27
2022-11-27T22:36:47.703Z,15.07
2022-11-27T22:39:16.392Z,10.38
2022-11-27T22:41:46.029Z,9.20
2022-11-27T22:44:17.502Z,10.02
2022-11-27T22:46:46.536Z,9.90
2022-11-27T22:49:18.412Z,4.80
2022-11-27T22:51:47.114Z,6.00
2022-11-27T22:54:18.000Z,3.70
2022-11-27T22:56:47.360Z,3.10
2022-11-27T22:59:33.687Z,5.63
2022-11-27T23:02:05.088Z,6.80
2022-11-27T23:04:35.409Z,3.25
2022-11-27T23:07:04.163Z,4.03
2022-11-27T23:09:33.089Z,3.05
2022-11-27T23:12:01.341Z,3.50
2022-11-27T23:14:29.624Z,3.92
2022-11-27T23:16:57.923Z,3.80
2022-11-27T23:19:26.189Z,5.80
2022-11-27T23:21:55.693Z,3.20
2022-11-27T23:24:23.902Z,3.20
2022-11-27T23:26:52.129Z,4.00
2022-11-27T23:29:20.496Z,3.72
2022-11-27T23:31:48.832Z,4.13
2022-11-27T23:34:17.108Z,5.35
2022-11-27T23:36:45.905Z,3.92
2022-11-27T23:39:16.002Z,4.05
2022-11-27T23:41:44.620Z,3.80
2022-11-27T23:44:12.883Z,3.92
2022-11-27T23:46:41.083Z,3.53
2022-11-27T23:49:09.336Z,5.80
2022-11-27T23:51:37.851Z,2.97
2022-11-27T23:54:09.669Z,3.58
2022-11-27T23:56:39.800Z,3.40
2022-11-27T23:59:08.678Z,2.95
